Create Tblcommutelog Verified Points Advance Search
| # | Trip ID | Id Commuter | Trip Date | Trip Num | Current Lat | Current Lng | Delta Distance | Current Time | Activity | Activity Confidence | Current Speed | |
|---|---|---|---|---|---|---|---|---|---|---|---|---|
| 71721 | 251203_789748_16501607_0557 | 789748 | (not set) | (not set) | 39.172125538115 | -76.800800554761 | 3.4258 | 2025-12-03 06:00:53 | in_vehicle | 100 | 13.11166146611 | |
| 71722 | 251203_781531_16513718_0524 | 781531 | (not set) | (not set) | 39.089551087738 | -77.174691537195 | 25.829 | 2025-12-03 06:01:39 | in_vehicle | 100 | 15.534614249823 | |
| 71723 | 251203_789748_16501607_0557 | 789748 | (not set) | (not set) | 39.15812880133 | -76.831012059026 | 5.3392 | 2025-12-03 06:02:31 | in_vehicle | 100 | 13.773279569412 | |
| 71724 | 251203_781531_16513718_0524 | 781531 | (not set) | (not set) | 39.065033227719 | -77.157005309325 | 27.8036 | 2025-12-03 06:03:22 | in_vehicle | 100 | 14.627124554078 | |
| 71725 | 251203_789579_16464305_0555 | 789579 | (not set) | (not set) | 39.046294930962 | -77.544398793777 | 3.126 | 2025-12-03 06:04:17 | in_vehicle | 100 | 10.541185726931 | |
| 71726 | 251203_789579_16464305_0555 | 789579 | (not set) | (not set) | 39.039401391741 | -77.536573508507 | 3.7847 | 2025-12-03 06:05:05 | in_vehicle | 100 | 8.7485582983898 | |
| 71727 | 251203_789748_16501607_0557 | 789748 | (not set) | (not set) | 39.112995011769 | -76.876557197698 | 9.3704 | 2025-12-03 06:05:44 | in_vehicle | 100 | 15.896716049603 | |
| 71728 | 251203_789139_16515835_0532 | 789139 | (not set) | (not set) | 38.7920836 | -77.0140634 | 8.3739 | 2025-12-03 05:54:30 | in_vehicle | 100 | 6.517832396041 | |
| 71729 | 251203_789139_16515835_0532 | 789139 | (not set) | (not set) | 38.8103333 | -77.0222161 | 9.8162 | 2025-12-03 05:56:43 | in_vehicle | 100 | 3.822185664345 | |
| 71730 | 251203_789139_16515835_0532 | 789139 | (not set) | (not set) | 38.8230528 | -77.0166382 | 10.7509 | 2025-12-03 05:59:30 | in_vehicle | 100 | 4.5821524046242 | |
| 71731 | 251203_789139_16515835_0532 | 789139 | (not set) | (not set) | 38.8420885 | -77.0078246 | 12.1804 | 2025-12-03 06:01:22 | in_vehicle | 100 | 11.082103230306 | |
| 71732 | 251203_789139_16515835_0532 | 789139 | (not set) | (not set) | 38.8658684 | -76.9917826 | 14.2189 | 2025-12-03 06:03:47 | in_vehicle | 100 | 8.4982163133566 | |
| 71733 | 251203_789139_16515835_0532 | 789139 | (not set) | (not set) | 38.8799257 | -76.9993979 | 15.5829 | 2025-12-03 06:06:10 | in_vehicle | 100 | 8.3059894319919 | |
| 71734 | 251203_789748_16501607_0557 | 789748 | (not set) | (not set) | 39.094804920614 | -76.891391096589 | 10.9059 | 2025-12-03 06:06:56 | in_vehicle | 100 | 15.570377390542 | |
| 71735 | 251203_789579_16464305_0555 | 789579 | (not set) | (not set) | 39.034465018436 | -77.524597274123 | 5.2026 | 2025-12-03 06:07:43 | in_vehicle | 100 | 9.5442881793879 | |
| 71736 | 251203_789748_16501607_0557 | 789748 | (not set) | (not set) | 39.067524181523 | -76.910034439855 | 13.0443 | 2025-12-03 06:08:42 | in_vehicle | 100 | 14.148792546961 | |
| 71737 | 251203_789579_16464305_0555 | 789579 | (not set) | (not set) | 39.031045790411 | -77.521032372882 | 5.8194 | 2025-12-03 06:09:30 | in_vehicle | 100 | 9.6068736756462 | |
| 71738 | 251203_789579_16464305_0555 | 789579 | (not set) | (not set) | 39.02666303254 | -77.511977169859 | 6.4664 | 2025-12-03 06:10:24 | in_vehicle | 100 | 5.9590333223064 | |
| 71739 | 251203_788105_16420974_0605 | 788105 | (not set) | (not set) | 38.813184628836 | -76.802466121209 | 3.192 | 2025-12-03 06:11:16 | unknown | 100 | 13.554230332508 | |
| 71740 | 251203_789579_16464305_0555 | 789579 | (not set) | (not set) | 39.017249869632 | -77.511247587792 | 7.1494 | 2025-12-03 06:12:04 | in_vehicle | 100 | 0 |